KHMN/HMN METAR and TAF weather

Enter ICAO airport designator
Station Type Date Time Source
KHMN METAR 2020/10/22 02:58 UTC NOAA

KHMN 220258Z AUTO 11006KT 10SM CLR 20/M07 A2994 RMK AO2 SLP088 T01991067 51006 $


Station Type Date Time Source
KHMN Decoded METAR 2020/10/22 02:58 UTC NOAA

Holloman Air Force Base, NM, United States (KHMN) 32-51N 106-06W 1248M
Oct 21, 2020 - 10:58 PM EDT / 2020.10.22 0258 UTC
Wind: from the ESE (110 degrees) at 7 MPH (6 KT):0
Visibility: 10 mile(s):0
Sky conditions: clear
Temperature: 67.8 F (19.9 C)
Dew Point: 19.9 F (-6.7 C)
Relative Humidity: 15%
Pressure (altimeter): 29.94 in. Hg (1013 hPa)
Pressure tendency: 0.02 inches (0.6 hPa) higher than three hours ago
ob: KHMN 220258Z AUTO 11006KT 10SM CLR 20/M07 A2994 RMK AO2 SLP088 T01991067 51006
cycle: 3

Station Type Date Time Source
KHMN TAF 2020/10/22 01:57 UTC NOAA

TAF KHMN 220100Z 2201/2307 VRB06KT 9999 FEW250 QNH2997INS
BECMG 2217/2218 21012KT 9999 SKC QNH2998INS TX32/2222Z TN07/2212Z

Example: see airport list